Startpagina
METAR-TAF:

METAR-TAF

Vliegvelden :

Churchill, Manitoba, Canada

breedte: 58-44N, lengte: 094-04W, hoogte: 28 m

Actueel weer

Dit bericht is 31 minuten geleden gemaakt, om 04:00 UTC
Wind 5 kt uit het westzuidwesten
Temperatuur 8°C
Vochtigheid 76%
Druk 1019 hPa
Zicht: 24.1 km
Onbewolkt

METAR: CYYQ 230400Z 25005KT 15SM SKC 08/04 A3008 RMK FU2 SLP188

Tijdstip: 23:31 (04:31 UTC)

Verwachting

Dit bericht is 4 uur en het 53 minuten geleden gemaakt, om 23:38 UTC
Verwachting geldig van 23 om 00 UTC tot 23 om 24 UTC
Wind 5 kt uit het noorden
Zicht: 10 km
Onbewolkt

TAF: CYYQ 222338Z 2300/2324 36005KT P6SM SKC RMK NXT FCST BY 230600Z

Waarnemingen en weersverwachtingen van meer dan 4000 vliegvelden (METAR en TAF).

De beschikbare stations zijn de gele en rode punten op de kaart.

Ga met uw muis naar het station om de naam te zien.

Klik dan om waarnemingen en weersverwachtingen te zien.

kaart wijzigen: klik op de groene knoppen met een zwart kruis om in te zoomen, op de groene knop met een streepje om uit te zoomen of op de groene pijlen voor aangrenzende kaarten.


METAR-TAF: